Time;durP1;ratioP1;P1;durP2;ratioP2;P2;SDS_P1;SDS_P2;PMS_P1;PMS_P2;Temp;Humidity;BMP_temperature;BMP_pressure;BME280_temperature;BME280_humidity;BME280_pressure;Samples;Min_cycle;Max_cycle;Signal;HPM_P1;HPM_P2
2023/06/20 00:02:21;;;;;;;261.33;248.93;;;15.60;99.90;;;;;;5034348;28;20043;-74
2023/06/20 00:04:47;;;;;;;249.70;237.68;;;15.60;99.90;;;;;;5029487;28;20148;-74
2023/06/20 00:07:13;;;;;;;307.25;292.00;;;15.60;99.90;;;;;;5044396;28;20040;-74
2023/06/20 00:09:39;;;;;;;214.57;204.27;;;15.60;99.90;;;;;;5026835;28;20559;-74
2023/06/20 00:12:05;;;;;;;209.02;198.90;;;15.60;99.90;;;;;;5038563;28;20139;-74
2023/06/20 00:14:31;;;;;;;224.02;213.20;;;15.60;99.90;;;;;;5042570;28;20525;-74
2023/06/20 00:16:58;;;;;;;242.27;230.57;;;15.50;99.90;;;;;;5045620;28;20049;-74
2023/06/20 00:19:25;;;;;;;208.90;198.82;;;15.50;99.90;;;;;;5040916;28;20052;-74
2023/06/20 00:21:51;;;;;;;300.10;285.35;;;15.60;99.90;;;;;;5044513;28;20048;-74
2023/06/20 00:24:16;;;;;;;254.15;241.70;;;15.50;99.90;;;;;;5019194;28;20084;-74
2023/06/20 00:26:42;;;;;;;214.95;204.35;;;15.50;99.90;;;;;;5023850;28;20052;-74
2023/06/20 00:29:07;;;;;;;223.85;212.68;;;15.50;99.90;;;;;;5036720;28;20041;-74
2023/06/20 00:31:33;;;;;;;144.90;137.52;;;15.50;99.90;;;;;;5036636;28;20045;-74
2023/06/20 00:33:59;;;;;;;151.65;143.50;;;15.50;99.90;;;;;;5045311;28;20033;-74
2023/06/20 00:36:27;;;;;;;153.63;146.15;;;15.50;99.90;;;;;;5045303;28;20147;-74
2023/06/20 00:38:56;;;;;;;198.35;188.02;;;15.50;99.90;;;;;;5045852;28;20500;-74
2023/06/20 00:41:23;;;;;;;167.45;158.63;;;15.50;99.90;;;;;;5030559;28;20088;-74
2023/06/20 00:43:49;;;;;;;166.15;157.60;;;15.50;99.90;;;;;;5032670;28;20492;-74
2023/06/20 00:46:25;;;;;;;158.65;150.18;;;15.50;99.90;;;;;;5048055;28;20041;-74
2023/06/20 00:48:51;;;;;;;161.50;152.60;;;15.50;99.90;;;;;;5030386;28;20040;-74
2023/06/20 00:51:19;;;;;;;222.73;211.32;;;15.60;99.90;;;;;;5050341;28;20041;-74
2023/06/20 00:53:46;;;;;;;200.10;189.50;;;15.60;99.90;;;;;;5032483;28;20059;-74
2023/06/20 00:56:13;;;;;;;123.55;116.63;;;15.60;99.90;;;;;;5031597;28;20495;-74
2023/06/20 00:58:39;;;;;;;110.72;104.55;;;15.60;99.90;;;;;;5040380;28;20102;-74
2023/06/20 01:01:05;;;;;;;140.05;132.52;;;15.60;99.90;;;;;;5031995;28;20053;-74
2023/06/20 01:03:32;;;;;;;117.97;111.45;;;15.60;99.90;;;;;;5035398;28;20061;-74
2023/06/20 01:06:09;;;;;;;136.00;128.25;;;15.60;99.90;;;;;;5048804;28;20499;-74
2023/06/20 01:09:31;;;;;;;154.50;146.02;;;15.60;99.90;;;;;;5048859;28;20120;-74
2023/06/20 01:12:08;;;;;;;116.15;109.43;;;15.60;99.90;;;;;;5018314;28;20424;-74
2023/06/20 01:14:53;;;;;;;108.28;102.07;;;15.60;99.90;;;;;;5031428;28;20053;-74
2023/06/20 01:17:37;;;;;;;104.93;98.90;;;15.70;99.90;;;;;;5045567;28;20071;-74
2023/06/20 01:20:19;;;;;;;103.70;97.72;;;15.70;99.90;;;;;;5046395;28;20037;-74
2023/06/20 01:23:00;;;;;;;149.20;141.07;;;15.60;99.90;;;;;;5041037;28;20044;-74
2023/06/20 01:25:47;;;;;;;114.53;108.10;;;15.70;99.90;;;;;;5031912;28;20052;-74
2023/06/20 01:28:38;;;;;;;139.48;131.43;;;15.70;99.90;;;;;;5068190;28;20504;-74
2023/06/20 01:31:16;;;;;;;104.25;98.05;;;15.80;99.90;;;;;;5042869;28;20049;-74
2023/06/20 01:33:58;;;;;;;112.47;105.68;;;15.80;99.90;;;;;;5048852;28;20064;-74
2023/06/20 01:36:32;;;;;;;97.38;91.45;;;15.80;99.90;;;;;;5031011;28;20048;-74
2023/06/20 01:39:02;;;;;;;114.47;107.47;;;15.90;99.90;;;;;;5046102;28;20033;-74
2023/06/20 01:41:31;;;;;;;103.15;96.95;;;15.90;99.90;;;;;;5031881;28;20119;-74
2023/06/20 01:44:01;;;;;;;100.13;94.03;;;15.90;99.90;;;;;;5022939;28;20076;-74
2023/06/20 01:46:27;;;;;;;98.28;92.72;;;15.90;99.90;;;;;;5040581;28;20053;-74
2023/06/20 01:48:53;;;;;;;101.38;95.20;;;15.90;99.90;;;;;;5034337;28;20398;-74
2023/06/20 01:51:20;;;;;;;92.43;87.28;;;16.00;99.90;;;;;;5022344;28;20047;-74
2023/06/20 01:53:47;;;;;;;88.97;83.72;;;16.00;99.90;;;;;;5036317;28;20049;-74
2023/06/20 01:56:13;;;;;;;86.68;81.47;;;16.00;99.90;;;;;;5035913;28;20045;-74
2023/06/20 01:58:40;;;;;;;86.13;81.03;;;16.00;99.90;;;;;;5026060;28;20485;-74
2023/06/20 02:01:06;;;;;;;84.50;79.68;;;16.00;99.90;;;;;;5045257;28;20072;-74
2023/06/20 02:03:33;;;;;;;85.60;80.68;;;16.10;99.90;;;;;;5031424;28;20061;-74
2023/06/20 02:06:00;;;;;;;82.65;77.75;;;16.10;99.90;;;;;;5047916;28;20052;-74
2023/06/20 02:08:29;;;;;;;80.95;76.38;;;16.10;99.90;;;;;;5043204;28;20088;-74
2023/06/20 02:10:56;;;;;;;85.22;79.93;;;16.10;99.90;;;;;;5036132;28;20047;-74
2023/06/20 02:13:23;;;;;;;84.15;78.97;;;16.10;99.90;;;;;;5045416;28;20052;-74
2023/06/20 02:15:52;;;;;;;78.97;74.32;;;16.20;99.90;;;;;;5049903;28;20107;-74
2023/06/20 02:18:21;;;;;;;83.32;78.30;;;16.20;99.90;;;;;;5035649;28;20095;-74
2023/06/20 02:20:53;;;;;;;85.13;79.93;;;16.20;99.90;;;;;;5031075;28;20074;-74
2023/06/20 02:23:27;;;;;;;87.95;82.35;;;16.20;99.90;;;;;;5047046;28;20055;-74
2023/06/20 02:25:57;;;;;;;82.85;77.95;;;16.20;99.90;;;;;;5046803;28;20485;-74
2023/06/20 02:28:26;;;;;;;84.80;80.13;;;16.20;99.90;;;;;;5045928;28;20120;-74
2023/06/20 02:30:52;;;;;;;83.25;78.32;;;16.20;99.90;;;;;;5041349;28;20505;-74
2023/06/20 02:33:21;;;;;;;85.07;80.10;;;16.20;99.90;;;;;;5047419;28;20036;-74
2023/06/20 02:35:50;;;;;;;87.03;81.97;;;16.20;99.90;;;;;;5047326;28;20045;-74
2023/06/20 02:38:16;;;;;;;89.95;84.82;;;16.20;99.90;;;;;;5044125;28;20073;-74
2023/06/20 02:40:41;;;;;;;94.97;89.75;;;16.20;99.90;;;;;;5040139;28;20528;-74
2023/06/20 02:43:08;;;;;;;100.00;94.55;;;16.20;99.90;;;;;;5037801;28;20139;-74
2023/06/20 02:45:35;;;;;;;99.25;93.97;;;16.20;99.90;;;;;;5043349;28;20136;-74
2023/06/20 02:48:15;;;;;;;95.13;90.00;;;16.30;99.90;;;;;;5042471;28;20148;-74
2023/06/20 02:51:05;;;;;;;98.80;93.55;;;16.30;99.90;;;;;;5047411;28;20044;-75
2023/06/20 02:53:36;;;;;;;106.65;101.22;;;16.30;99.90;;;;;;5042673;28;20049;-75
2023/06/20 02:56:08;;;;;;;111.22;105.43;;;16.30;99.90;;;;;;5046897;28;20052;-74
2023/06/20 02:58:35;;;;;;;109.75;104.15;;;16.30;99.90;;;;;;5020281;28;20131;-74
2023/06/20 03:01:01;;;;;;;113.50;107.68;;;16.30;99.90;;;;;;5067104;28;20049;-74
2023/06/20 03:03:30;;;;;;;112.25;106.38;;;16.30;99.90;;;;;;5046744;28;20532;-74
2023/06/20 03:05:57;;;;;;;122.00;115.78;;;16.40;99.90;;;;;;5046585;28;20148;-74
2023/06/20 03:08:28;;;;;;;123.85;117.47;;;16.40;99.90;;;;;;5062042;28;20497;-74
2023/06/20 03:10:58;;;;;;;119.93;114.00;;;16.40;99.90;;;;;;5076515;28;20083;-75
2023/06/20 03:13:25;;;;;;;123.80;117.47;;;16.50;99.90;;;;;;5042139;28;20505;-74
2023/06/20 03:15:50;;;;;;;125.90;119.57;;;16.50;99.90;;;;;;5028607;28;20029;-75
2023/06/20 03:18:19;;;;;;;137.52;130.80;;;16.50;99.90;;;;;;5030346;28;20045;-74
2023/06/20 03:20:47;;;;;;;129.30;122.90;;;16.50;99.90;;;;;;5046071;28;20413;-74
2023/06/20 03:23:13;;;;;;;150.98;143.48;;;16.50;99.90;;;;;;5045904;28;20044;-75
2023/06/20 03:25:39;;;;;;;147.15;139.95;;;16.60;99.90;;;;;;5047333;28;20858;-74
2023/06/20 03:28:05;;;;;;;155.55;147.68;;;16.60;99.90;;;;;;5046769;28;20041;-75
2023/06/20 03:30:30;;;;;;;160.90;153.00;;;16.60;99.90;;;;;;5028632;28;20048;-74
2023/06/20 03:32:56;;;;;;;154.70;146.90;;;16.60;99.90;;;;;;5046756;28;20053;-74
2023/06/20 03:35:22;;;;;;;161.18;153.27;;;16.60;99.90;;;;;;5046542;28;20048;-74
2023/06/20 03:37:47;;;;;;;154.88;147.30;;;16.60;99.90;;;;;;5029232;28;20047;-74
2023/06/20 03:40:13;;;;;;;173.07;164.75;;;16.70;99.90;;;;;;5046668;28;20040;-74
2023/06/20 03:42:39;;;;;;;222.77;212.20;;;16.70;99.90;;;;;;5042460;28;20099;-75
2023/06/20 03:45:05;;;;;;;240.52;229.15;;;16.70;99.90;;;;;;5041934;28;20102;-75
2023/06/20 03:47:31;;;;;;;221.10;210.52;;;16.70;99.90;;;;;;5041872;28;20080;-74
2023/06/20 03:49:56;;;;;;;257.90;246.02;;;16.70;99.90;;;;;;5069040;28;20469;-74
2023/06/20 03:52:22;;;;;;;254.57;242.85;;;16.70;99.90;;;;;;5027490;28;20699;-74
2023/06/20 03:54:47;;;;;;;282.63;269.10;;;16.80;99.90;;;;;;5042049;28;20607;-74
2023/06/20 03:57:13;;;;;;;304.90;290.27;;;16.80;99.90;;;;;;5027956;28;20401;-74
2023/06/20 03:59:39;;;;;;;424.55;403.27;;;16.80;99.90;;;;;;5064555;28;20566;-74
2023/06/20 04:02:04;;;;;;;387.20;368.30;;;16.80;99.90;;;;;;5045114;28;20505;-74
2023/06/20 04:04:30;;;;;;;388.02;368.80;;;16.80;99.90;;;;;;5035332;28;20065;-74
2023/06/20 04:06:56;;;;;;;410.63;390.08;;;16.90;99.90;;;;;;5029432;28;20055;-74
2023/06/20 04:09:26;;;;;;;404.45;384.55;;;16.90;99.90;;;;;;5028425;28;20048;-74
2023/06/20 04:11:52;;;;;;;481.02;456.27;;;16.90;99.90;;;;;;5026767;28;20041;-74
2023/06/20 04:14:18;;;;;;;559.78;529.70;;;17.00;99.90;;;;;;5041274;28;20080;-74
2023/06/20 04:16:44;;;;;;;544.35;515.05;;;17.00;99.90;;;;;;5045082;28;20505;-74
2023/06/20 04:19:10;;;;;;;588.28;556.13;;;17.10;99.90;;;;;;5032820;28;20039;-74
2023/06/20 04:21:35;;;;;;;627.63;591.47;;;17.10;99.90;;;;;;5046167;28;20124;-74
2023/06/20 04:24:01;;;;;;;612.58;577.30;;;17.10;99.90;;;;;;5035020;28;20183;-74
2023/06/20 04:26:29;;;;;;;495.98;470.17;;;17.20;99.90;;;;;;5029110;28;20040;-74
2023/06/20 04:28:56;;;;;;;530.92;502.45;;;17.20;99.90;;;;;;5071332;28;20117;-74
2023/06/20 04:31:21;;;;;;;495.08;469.48;;;17.20;99.90;;;;;;5044554;28;20094;-75
2023/06/20 04:33:47;;;;;;;440.52;417.95;;;17.30;99.90;;;;;;5036405;28;20449;-74
2023/06/20 04:36:13;;;;;;;539.85;509.52;;;17.40;99.90;;;;;;5028562;28;20044;-74
2023/06/20 04:38:40;;;;;;;516.10;488.25;;;17.40;99.90;;;;;;5043223;28;20086;-74
2023/06/20 04:41:06;;;;;;;370.05;352.40;;;17.50;99.90;;;;;;5028353;28;20489;-75
2023/06/20 04:43:32;;;;;;;453.77;430.45;;;17.50;99.90;;;;;;5041284;28;20045;-74
2023/06/20 04:45:58;;;;;;;275.48;263.27;;;17.60;99.90;;;;;;5045705;28;20037;-74
2023/06/20 04:48:35;;;;;;;186.90;178.30;;;17.60;99.90;;;;;;5027718;28;20045;-74
2023/06/20 04:51:01;;;;;;;187.90;179.15;;;17.70;99.90;;;;;;5049705;28;20070;-75
2023/06/20 04:53:27;;;;;;;148.15;141.10;;;17.70;99.90;;;;;;5016631;28;20045;-75
2023/06/20 04:55:54;;;;;;;202.05;192.52;;;17.80;99.90;;;;;;5028529;28;20045;-75
2023/06/20 04:58:19;;;;;;;167.10;159.25;;;17.80;99.90;;;;;;5039881;28;20041;-74
2023/06/20 05:00:45;;;;;;;101.80;96.65;;;17.90;99.90;;;;;;5041293;28;20119;-75
2023/06/20 05:03:11;;;;;;;151.15;143.95;;;17.90;99.90;;;;;;5037866;28;20152;-75
2023/06/20 05:05:36;;;;;;;71.20;67.30;;;17.90;99.90;;;;;;5022742;28;20092;-75
2023/06/20 05:08:02;;;;;;;99.80;94.93;;;17.90;99.90;;;;;;5020961;28;20041;-75
2023/06/20 05:10:28;;;;;;;115.55;109.80;;;18.00;99.90;;;;;;5025327;28;20061;-75
2023/06/20 05:12:53;;;;;;;88.13;83.63;;;18.00;99.90;;;;;;5038896;28;20041;-75
2023/06/20 05:15:23;;;;;;;83.35;79.10;;;18.10;99.90;;;;;;5042167;28;20047;-75
2023/06/20 05:17:50;;;;;;;85.13;80.82;;;18.10;99.90;;;;;;5034700;28;20050;-75
2023/06/20 05:20:16;;;;;;;90.97;86.38;;;18.10;99.90;;;;;;5057333;28;20036;-75
2023/06/20 05:22:42;;;;;;;116.43;110.90;;;18.20;99.90;;;;;;5037233;28;20076;-76
2023/06/20 05:25:08;;;;;;;127.88;121.97;;;18.30;99.90;;;;;;5036254;28;20080;-75
2023/06/20 05:27:33;;;;;;;95.18;90.57;;;18.40;99.90;;;;;;5044897;28;20402;-75
2023/06/20 05:29:59;;;;;;;180.85;172.73;;;18.40;99.90;;;;;;5048718;28;20044;-75
2023/06/20 05:32:25;;;;;;;168.18;160.48;;;18.50;99.90;;;;;;5029364;28;20060;-74
2023/06/20 05:34:52;;;;;;;178.00;169.98;;;18.50;99.90;;;;;;5024615;28;20048;-74
2023/06/20 05:37:18;;;;;;;158.82;151.65;;;18.60;99.90;;;;;;5043847;28;20048;-74
2023/06/20 05:39:43;;;;;;;193.63;185.07;;;18.60;99.90;;;;;;5043253;28;20401;-75
2023/06/20 05:42:09;;;;;;;218.93;209.27;;;18.70;99.90;;;;;;5049289;28;20493;-77
2023/06/20 05:44:36;;;;;;;238.43;227.75;;;18.70;99.90;;;;;;5043030;28;20045;-75
2023/06/20 05:47:03;;;;;;;215.43;205.73;;;18.70;99.90;;;;;;5045542;28;20147;-75
2023/06/20 05:49:28;;;;;;;181.13;172.90;;;18.80;99.90;;;;;;5044492;28;20048;-75
2023/06/20 05:51:54;;;;;;;174.18;166.07;;;18.80;99.90;;;;;;5038784;28;20404;-75
2023/06/20 05:54:22;;;;;;;246.75;235.35;;;18.80;99.90;;;;;;5043940;28;20464;-75
2023/06/20 05:56:48;;;;;;;269.30;256.85;;;18.80;99.90;;;;;;5041306;28;20092;-75
2023/06/20 05:59:14;;;;;;;247.43;236.25;;;18.80;99.90;;;;;;5021582;28;20049;-75
2023/06/20 06:01:40;;;;;;;228.95;218.60;;;18.80;99.90;;;;;;5041688;28;20052;-76
2023/06/20 06:04:06;;;;;;;229.85;219.57;;;18.80;99.90;;;;;;5038402;28;20067;-75
2023/06/20 06:06:32;;;;;;;211.00;201.38;;;18.90;99.90;;;;;;5032449;28;20057;-76
2023/06/20 06:08:58;;;;;;;225.23;215.00;;;18.90;99.90;;;;;;5036203;28;20102;-76
2023/06/20 06:11:25;;;;;;;285.55;272.38;;;19.00;99.90;;;;;;5068021;28;20053;-76
2023/06/20 06:13:51;;;;;;;252.65;241.23;;;18.90;99.90;;;;;;5028480;28;20086;-76
2023/06/20 06:16:20;;;;;;;302.35;288.25;;;19.00;99.90;;;;;;5039047;28;20041;-76
2023/06/20 06:18:45;;;;;;;297.25;283.52;;;19.00;99.90;;;;;;5045824;28;20404;-75
2023/06/20 06:21:11;;;;;;;289.92;276.42;;;19.00;99.90;;;;;;5030950;28;20049;-75
2023/06/20 06:23:37;;;;;;;282.10;269.35;;;19.00;99.90;;;;;;5045637;28;20468;-75
2023/06/20 06:26:04;;;;;;;325.60;310.40;;;19.00;99.90;;;;;;5032898;28;20033;-75
2023/06/20 06:28:30;;;;;;;328.20;312.48;;;19.20;99.90;;;;;;5042375;28;20045;-75
2023/06/20 06:31:00;;;;;;;286.55;273.30;;;19.30;99.90;;;;;;5030107;28;20456;-75
2023/06/20 06:33:28;;;;;;;312.52;297.88;;;19.50;99.90;;;;;;5036304;28;20088;-75
2023/06/20 06:35:55;;;;;;;333.67;317.88;;;19.70;99.90;;;;;;5026112;28;20112;-76
2023/06/20 06:38:21;;;;;;;151.73;144.60;;;20.00;99.90;;;;;;5027913;28;20037;-75
2023/06/20 06:40:47;;;;;;;325.50;310.08;;;20.40;99.90;;;;;;5038487;28;20094;-76
2023/06/20 06:43:14;;;;;;;191.43;182.35;;;20.60;99.90;;;;;;5039428;28;20452;-75
2023/06/20 06:45:40;;;;;;;243.68;232.07;;;20.80;99.90;;;;;;5041785;28;20144;-75
2023/06/20 06:48:06;;;;;;;221.35;210.73;;;20.90;99.90;;;;;;5046571;28;20076;-76
2023/06/20 06:50:32;;;;;;;319.40;304.63;;;21.10;99.90;;;;;;5029773;28;20111;-76
2023/06/20 06:52:57;;;;;;;282.48;269.27;;;21.10;99.90;;;;;;5026008;28;20041;-75
2023/06/20 06:55:23;;;;;;;289.10;275.33;;;21.10;99.90;;;;;;5046187;28;20033;-75
2023/06/20 06:57:49;;;;;;;408.83;388.27;;;21.30;99.90;;;;;;5020146;28;20124;-75
2023/06/20 07:00:15;;;;;;;462.05;438.05;;;21.50;99.90;;;;;;5031197;28;20490;-74
2023/06/20 07:02:43;;;;;;;451.15;427.50;;;21.80;99.90;;;;;;5031559;28;20049;-77
2023/06/20 07:05:08;;;;;;;451.23;428.33;;;21.90;99.90;;;;;;5040712;28;20064;-77
2023/06/20 07:07:34;;;;;;;378.33;359.33;;;22.00;99.90;;;;;;5025806;28;20051;-76
2023/06/20 07:10:00;;;;;;;465.08;440.38;;;22.00;99.90;;;;;;5031114;28;20033;-75
2023/06/20 07:12:26;;;;;;;279.50;266.50;;;22.10;99.90;;;;;;5036017;28;20053;-76
2023/06/20 07:14:56;;;;;;;426.70;404.90;;;22.20;99.90;;;;;;5040083;28;20045;-76
2023/06/20 07:17:24;;;;;;;416.88;395.70;;;22.20;99.90;;;;;;5042270;28;20155;-76
2023/06/20 07:19:51;;;;;;;397.95;378.45;;;22.20;99.90;;;;;;5038873;28;20059;-77
2023/06/20 07:22:17;;;;;;;343.77;327.05;;;22.20;99.90;;;;;;5027840;28;20124;-76
2023/06/20 07:24:43;;;;;;;366.15;348.42;;;22.20;99.90;;;;;;5032312;28;20041;-76
2023/06/20 07:27:08;;;;;;;335.90;319.80;;;22.10;99.90;;;;;;5042370;28;20041;-76
2023/06/20 07:29:34;;;;;;;387.67;368.35;;;22.00;99.90;;;;;;5039126;28;20053;-76
2023/06/20 07:32:00;;;;;;;384.75;365.25;;;21.90;99.90;;;;;;5069060;28;20049;-76
2023/06/20 07:34:25;;;;;;;410.27;389.55;;;21.90;99.90;;;;;;5010074;28;20045;-76
2023/06/20 07:36:51;;;;;;;442.77;419.80;;;21.90;99.90;;;;;;5039583;28;20107;-77
2023/06/20 07:39:16;;;;;;;430.95;408.88;;;21.90;99.90;;;;;;5044958;28;20048;-76
2023/06/20 07:41:42;;;;;;;306.45;291.33;;;21.90;99.90;;;;;;5046489;28;20056;-76
2023/06/20 07:44:10;;;;;;;398.10;378.10;;;22.00;99.90;;;;;;5018958;28;20055;-77
2023/06/20 07:46:38;;;;;;;156.80;149.05;;;22.20;99.90;;;;;;5038483;28;20053;-76
2023/06/20 07:49:03;;;;;;;395.88;375.85;;;22.30;99.90;;;;;;5017188;28;20056;-75
2023/06/20 07:51:33;;;;;;;309.63;294.60;;;22.60;99.90;;;;;;5037394;28;20041;-76
2023/06/20 07:53:59;;;;;;;348.55;331.70;;;22.60;99.90;;;;;;5027262;28;20045;-77
2023/06/20 07:56:25;;;;;;;312.95;298.20;;;22.70;99.90;;;;;;5036627;28;21219;-76
2023/06/20 07:58:51;;;;;;;385.98;366.58;;;22.80;99.90;;;;;;5028720;28;20102;-77
2023/06/20 08:01:18;;;;;;;287.83;274.35;;;22.90;99.90;;;;;;5035242;28;20136;-77
2023/06/20 08:03:43;;;;;;;296.35;282.55;;;22.90;99.90;;;;;;5033865;28;20080;-77
2023/06/20 08:06:10;;;;;;;291.63;278.05;;;23.10;99.90;;;;;;5022768;28;20041;-77
2023/06/20 08:08:36;;;;;;;258.23;246.05;;;23.20;99.90;;;;;;5039692;28;20048;-77
2023/06/20 08:11:03;;;;;;;314.08;299.35;;;23.40;99.90;;;;;;5036627;28;20037;-77
2023/06/20 08:13:29;;;;;;;241.75;230.77;;;23.50;99.90;;;;;;5035603;28;20059;-76
2023/06/20 08:15:55;;;;;;;207.45;197.88;;;23.60;99.90;;;;;;5044475;28;20489;-77
2023/06/20 08:18:21;;;;;;;234.23;223.65;;;23.80;99.90;;;;;;5030435;28;20063;-78
2023/06/20 08:20:47;;;;;;;216.20;206.63;;;23.90;99.90;;;;;;5036453;28;20040;-78
2023/06/20 08:23:14;;;;;;;242.85;232.07;;;24.20;99.90;;;;;;5045641;28;20135;-77
2023/06/20 08:25:39;;;;;;;231.68;221.23;;;24.20;99.90;;;;;;5033539;28;20494;-77
2023/06/20 08:28:05;;;;;;;222.10;212.23;;;24.30;99.90;;;;;;5040283;28;20167;-78
2023/06/20 08:30:31;;;;;;;216.43;206.52;;;24.50;99.90;;;;;;5058527;28;20118;-78
2023/06/20 08:32:56;;;;;;;123.32;117.53;;;24.70;99.90;;;;;;5028687;28;20374;-79
2023/06/20 08:35:22;;;;;;;91.95;87.30;;;24.80;99.90;;;;;;5067424;28;20052;-77
2023/06/20 08:37:48;;;;;;;109.22;103.78;;;24.80;99.90;;;;;;5045660;28;20489;-78
2023/06/20 08:40:14;;;;;;;94.03;89.40;;;24.70;99.90;;;;;;5040308;28;20112;-78
2023/06/20 08:42:42;;;;;;;149.60;142.77;;;24.60;99.90;;;;;;5041586;28;20099;-77
2023/06/20 08:45:08;;;;;;;135.60;129.35;;;24.40;99.90;;;;;;5043942;28;20501;-77
2023/06/20 08:47:34;;;;;;;104.25;99.30;;;24.30;99.90;;;;;;5018348;28;20044;-78
2023/06/20 08:50:00;;;;;;;162.48;154.85;;;24.20;99.90;;;;;;5029293;28;20490;-78
2023/06/20 08:52:30;;;;;;;155.15;147.85;;;24.00;99.90;;;;;;5042980;28;20501;-78
2023/06/20 08:54:57;;;;;;;207.20;197.63;;;24.00;99.90;;;;;;5033983;28;20053;-77
2023/06/20 08:57:23;;;;;;;202.05;192.75;;;24.00;99.90;;;;;;5046105;28;20494;-78
2023/06/20 08:59:49;;;;;;;159.48;152.05;;;24.00;99.90;;;;;;5028852;28;20036;-79
2023/06/20 09:02:16;;;;;;;151.23;144.32;;;24.20;99.90;;;;;;5037419;28;20045;-78
2023/06/20 09:04:41;;;;;;;181.40;173.05;;;24.40;99.90;;;;;;5037547;28;20057;-78
2023/06/20 09:07:18;;;;;;;128.63;122.63;;;24.40;99.90;;;;;;5033463;28;20049;-79
2023/06/20 09:09:45;;;;;;;185.05;176.73;;;24.60;99.90;;;;;;5044065;28;20127;-79
2023/06/20 09:12:10;;;;;;;204.93;195.57;;;24.70;99.90;;;;;;5025301;28;20040;-78
2023/06/20 09:14:36;;;;;;;93.45;88.80;;;24.80;99.90;;;;;;5030091;28;20547;-78
2023/06/20 09:17:03;;;;;;;121.57;115.78;;;24.90;99.90;;;;;;5030512;28;20128;-78
2023/06/20 09:19:41;;;;;;;95.00;90.40;;;24.90;99.90;;;;;;5041622;28;20405;-77
2023/06/20 09:22:07;;;;;;;79.75;75.90;;;25.00;99.90;;;;;;5047119;28;20053;-78
2023/06/20 09:24:42;;;;;;;126.47;120.63;;;24.90;99.90;;;;;;5048936;28;20394;-78
2023/06/20 09:27:07;;;;;;;136.57;130.02;;;24.90;99.90;;;;;;5046780;28;20106;-78
2023/06/20 09:29:33;;;;;;;103.72;98.90;;;25.00;99.90;;;;;;5080179;28;20045;-78
2023/06/20 09:31:58;;;;;;;97.63;93.00;;;25.10;99.90;;;;;;5036268;28;20081;-78
2023/06/20 09:34:24;;;;;;;98.75;94.05;;;25.20;99.90;;;;;;5029782;28;20053;-77
2023/06/20 09:36:50;;;;;;;78.40;74.55;;;25.40;99.90;;;;;;5059239;28;20178;-79
2023/06/20 09:39:20;;;;;;;92.20;87.90;;;25.50;99.90;;;;;;5031484;28;20048;-77
2023/06/20 09:41:50;;;;;;;107.68;102.65;;;25.70;99.90;;;;;;5041550;28;20052;-78
2023/06/20 09:44:17;;;;;;;79.50;75.32;;;25.90;99.90;;;;;;5039975;28;20079;-79
2023/06/20 09:46:43;;;;;;;90.13;85.75;;;26.10;99.90;;;;;;5040661;28;20052;-79
2023/06/20 09:49:12;;;;;;;81.75;77.82;;;26.30;99.90;;;;;;5042219;28;20134;-79
2023/06/20 09:51:44;;;;;;;96.10;91.70;;;26.50;99.90;;;;;;5031765;28;20493;-79
2023/06/20 09:54:13;;;;;;;85.90;81.75;;;26.80;99.90;;;;;;5063969;28;20512;-79
2023/06/20 09:56:52;;;;;;;106.10;101.22;;;27.10;99.90;;;;;;5027758;28;20053;-79
2023/06/20 09:59:21;;;;;;;94.75;90.28;;;27.50;99.90;;;;;;5040364;28;20359;-79
2023/06/20 10:01:49;;;;;;;111.88;106.45;;;28.00;99.90;;;;;;5042758;28;20056;-78
2023/06/20 10:04:16;;;;;;;93.65;89.07;;;28.30;99.90;;;;;;5046680;28;20061;-81
2023/06/20 10:06:42;;;;;;;64.82;61.40;;;28.60;99.90;;;;;;5018096;28;20070;-81
2023/06/20 10:09:09;;;;;;;62.30;59.28;;;28.80;99.90;;;;;;5042643;28;20447;-80
2023/06/20 10:11:40;;;;;;;96.95;92.28;;;28.80;99.90;;;;;;5027806;28;20045;-78
2023/06/20 10:14:07;;;;;;;91.85;87.57;;;28.80;99.90;;;;;;5045442;28;20120;-79
2023/06/20 10:16:33;;;;;;;73.97;70.43;;;28.80;99.90;;;;;;5048192;28;20060;-80
2023/06/20 10:19:16;;;;;;;87.97;83.45;;;28.80;99.90;;;;;;5047336;28;20041;-79
2023/06/20 10:22:01;;;;;;;163.27;155.73;;;28.80;99.90;;;;;;5046833;28;20413;-78
2023/06/20 10:24:29;;;;;;;71.72;68.13;;;28.90;99.90;;;;;;5037245;28;20045;-79
2023/06/20 10:26:59;;;;;;;119.63;114.20;;;29.00;99.90;;;;;;5043581;28;20049;-82
2023/06/20 10:29:26;;;;;;;109.18;103.85;;;29.30;99.90;;;;;;5031718;28;20061;-80
2023/06/20 10:31:57;;;;;;;129.82;123.75;;;29.40;99.90;;;;;;5063523;28;20128;-79
2023/06/20 10:34:33;;;;;;;155.90;148.55;;;29.50;99.90;;;;;;5021712;28;20049;-80
2023/06/20 10:37:20;;;;;;;154.55;147.60;;;29.40;99.90;;;;;;5031392;28;20106;-80
2023/06/20 10:39:56;;;;;;;277.08;263.98;;;29.50;99.90;;;;;;5072528;28;20080;-80
2023/06/20 10:42:41;;;;;;;366.65;348.52;;;29.60;99.60;;;;;;5021162;28;20112;-78
2023/06/20 10:45:17;;;;;;;199.35;190.18;;;29.70;98.90;;;;;;5067490;28;20052;-79
2023/06/20 10:47:42;;;;;;;187.95;179.30;;;29.80;99.90;;;;;;5038868;28;20044;-78
2023/06/20 10:50:10;;;;;;;314.55;299.65;;;29.90;99.70;;;;;;5044485;28;20412;-80
2023/06/20 10:52:37;;;;;;;359.33;342.08;;;30.10;98.70;;;;;;5029800;28;20063;-79
2023/06/20 10:55:03;;;;;;;292.23;277.77;;;30.20;98.70;;;;;;5043052;28;20721;-79
2023/06/20 10:57:29;;;;;;;350.70;333.83;;;30.30;98.10;;;;;;5010094;28;20047;-80
2023/06/20 10:59:54;;;;;;;345.63;328.48;;;30.40;96.80;;;;;;5026972;28;20037;-79
2023/06/20 11:02:20;;;;;;;287.27;273.42;;;30.50;96.70;;;;;;5028926;28;20154;-79
2023/06/20 11:04:48;;;;;;;454.70;430.45;;;30.60;96.20;;;;;;5022996;28;20114;-80
2023/06/20 11:07:13;;;;;;;326.67;310.65;;;30.50;95.80;;;;;;5070190;28;20138;-77
2023/06/20 11:09:40;;;;;;;447.15;423.65;;;30.70;95.40;;;;;;5035686;28;20049;-78
2023/06/20 11:12:07;;;;;;;522.92;494.38;;;30.70;95.10;;;;;;5016480;28;20052;-79
2023/06/20 11:14:33;;;;;;;454.38;430.15;;;30.70;95.40;;;;;;5035963;28;20055;-78
2023/06/20 11:17:00;;;;;;;507.73;479.77;;;30.50;94.10;;;;;;5031316;28;20037;-79
2023/06/20 11:19:28;;;;;;;400.52;379.35;;;30.50;94.80;;;;;;5034239;28;20489;-78
2023/06/20 11:21:55;;;;;;;355.17;336.60;;;30.60;95.10;;;;;;5046027;28;20404;-78
2023/06/20 11:24:21;;;;;;;366.95;348.30;;;30.60;95.20;;;;;;5055847;28;21119;-80
2023/06/20 11:26:47;;;;;;;211.23;201.20;;;30.70;94.20;;;;;;5008958;28;20131;-79
2023/06/20 11:29:12;;;;;;;344.30;327.13;;;30.80;93.60;;;;;;5030042;28;20087;-80
2023/06/20 11:31:38;;;;;;;369.75;351.13;;;30.80;94.00;;;;;;5039639;28;20049;-77
2023/06/20 11:34:05;;;;;;;189.82;180.65;;;30.90;92.60;;;;;;5040965;28;20036;-78
2023/06/20 11:36:36;;;;;;;197.00;187.40;;;31.00;93.30;;;;;;5047478;28;20106;-79
2023/06/20 11:39:13;;;;;;;190.77;181.50;;;31.00;93.20;;;;;;5068900;28;20038;-78
2023/06/20 11:41:39;;;;;;;237.25;225.85;;;31.00;93.60;;;;;;5044677;28;20056;-78
2023/06/20 11:44:21;;;;;;;265.70;253.32;;;31.00;92.60;;;;;;5038283;28;20049;-78
2023/06/20 11:46:47;;;;;;;282.15;268.35;;;31.00;93.70;;;;;;5040693;28;20492;-78
2023/06/20 11:49:13;;;;;;;259.05;246.43;;;31.20;93.30;;;;;;5046751;28;20040;-79
2023/06/20 11:51:39;;;;;;;165.55;157.68;;;31.30;92.90;;;;;;5046973;28;20404;-80
2023/06/20 11:54:12;;;;;;;162.50;154.80;;;31.20;92.80;;;;;;5038168;28;20111;-80
2023/06/20 11:56:38;;;;;;;306.20;291.15;;;31.20;92.60;;;;;;5039364;28;20049;-78
2023/06/20 11:59:04;;;;;;;164.48;156.25;;;31.20;92.80;;;;;;5034623;28;20055;-79
2023/06/20 12:01:32;;;;;;;238.38;227.10;;;31.20;92.40;;;;;;5027683;28;20501;-80
2023/06/20 12:04:06;;;;;;;211.57;201.48;;;31.30;93.40;;;;;;5049379;28;20075;-78
2023/06/20 12:06:34;;;;;;;264.92;252.27;;;31.20;92.40;;;;;;5038383;28;20060;-80
2023/06/20 12:09:06;;;;;;;306.35;291.10;;;31.20;93.10;;;;;;5040804;28;20042;-79
2023/06/20 12:11:32;;;;;;;154.63;147.00;;;31.30;93.90;;;;;;5067641;28;20045;-79
2023/06/20 12:13:58;;;;;;;133.27;126.88;;;31.20;92.10;;;;;;5040225;28;20454;-79
2023/06/20 12:16:24;;;;;;;103.80;98.75;;;30.90;92.20;;;;;;5041183;28;20381;-80